Etusivu
METAR-TAF:

METAR-TAF

Lentoasemat :

Hihifon lentoasema

Wallis, Ranska

Leveyspiiri: 13-14S, Pituuspiiri: 176-10W, korkeus merenpinnasta: 23 m

METAR: puuttuu

Aika: 12:04 (00:04 UTC)

Sääennuste

Tämä raportti tehtiin 1 tunti ja 4 minuuttia sitten, kello 23.00 UTC
Ennuste voimassa 19. päivästä klo 00 UTC - 19. päivään klo 24 UTC
Tuuli 12 kn idästä
Näkyvyys 10 km tai enemmän
Hajanaisia pilviä 2000 ft:n korkeudessa
Hajanaisia pilviä 3000 ft:n korkeudessa
Ajoittain
19. päivästä klo 02 UTC - 19. päivään klo 16 UTC
Muutamia pilviä 2000 ft:n korkeudessa, Kasvava cumulus-pilvi.
vesikuuroja
Ajoittain
19. päivästä klo 16 UTC - 19. päivään klo 24 UTC
Näkyvyys: 4000 m
Muutamia pilviä 2000 ft:n korkeudessa, Cumulonimbus.
vesikuuroja

TAF: NLWW 182300Z 1900/1924 09012KT 9999 SCT020 SCT030 TEMPO 1902/1916 SHRA FEW020TCU TEMPO 1916/1924 4000 SHRA FEW020CB

Säähavainnot ja -ennusteet yli 4000 lentoasemalta (METAR- ja TAF-raportit).

Käytössä olevat sääasemat on merkitty karttaan keltaisilla ja punaisilla pisteillä.

Aseta hiiri pisteen päälle nähdäksesi sääaseman nimen.

Klikkaa sitten nähdäksesi säähavainnot ja -ennusteet.

Kartan vaihtaminen: klikkaa mustalla rastilla varustettuja vihreitä pisteitä, niin voit zoomata sisään; viivalla varustettua vihreää pistettä, niin voit zoomata ulos tai vihreitä nuolia, niin pääset viereisille kartoille.


METAR-TAF: